Time;durP1;ratioP1;P1;durP2;ratioP2;P2;SDS_P1;SDS_P2;PMS_P1;PMS_P2;Temp;Humidity;BMP_temperature;BMP_pressure;BME280_temperature;BME280_humidity;BME280_pressure;Samples;Min_cycle;Max_cycle;Signal;HPM_P1;HPM_P2
2021/08/04 00:01:49;;;;;;;;;;;;;;;-142.75;66.70;76906.91;5048533;28;19917;-75
2021/08/04 00:04:14;;;;;;;;;;;;;;;-142.75;66.65;76912.81;5047438;28;20438;-76
2021/08/04 00:06:39;;;;;;;;;;;;;;;-142.75;66.76;76901.00;5055975;28;19916;-76
2021/08/04 00:09:05;;;;;;;;;;;;;;;-142.75;66.86;76906.91;5042529;28;20290;-76
2021/08/04 00:11:31;;;;;;;;;;;;;;;-142.75;66.76;76910.84;5050259;28;19917;-76
2021/08/04 00:13:56;;;;;;;;;;;;;;;-142.75;66.64;76912.81;5036578;28;20382;-76
2021/08/04 00:16:21;;;;;;;;;;;;;;;-142.75;66.54;76912.81;5054119;28;19924;-76
2021/08/04 00:18:47;;;;;;;;;;;;;;;-142.75;66.62;76918.72;5055545;28;19925;-76
2021/08/04 00:21:12;;;;;;;;;;;;;;;-142.75;66.58;76916.75;5054235;28;19959;-76
2021/08/04 00:23:37;;;;;;;;;;;;;;;-142.75;66.74;76897.06;5055671;28;19982;-76
2021/08/04 00:26:02;;;;;;;;;;;;;;;-142.75;66.80;76906.91;5054891;28;19999;-76
2021/08/04 00:28:28;;;;;;;;;;;;;;;-142.75;66.82;76904.94;5055538;28;19921;-76
2021/08/04 00:30:53;;;;;;;;;;;;;;;-142.75;66.70;76906.91;5054824;28;19916;-75
2021/08/04 00:33:18;;;;;;;;;;;;;;;-142.75;66.79;76889.19;5041015;28;20217;-76
2021/08/04 00:35:43;;;;;;;;;;;;;;;-142.75;66.71;76893.13;5045827;28;19925;-76
2021/08/04 00:38:09;;;;;;;;;;;;;;;-142.75;66.64;76891.16;5046082;28;20405;-76
2021/08/04 00:40:35;;;;;;;;;;;;;;;-142.75;66.50;76897.06;5051379;28;19935;-75
2021/08/04 00:43:00;;;;;;;;;;;;;;;-142.75;66.43;76897.06;5036092;28;19917;-76
2021/08/04 00:45:25;;;;;;;;;;;;;;;-142.75;66.45;76901.00;5044457;28;20417;-76
2021/08/04 00:47:50;;;;;;;;;;;;;;;-142.75;66.14;76901.00;5050828;28;19929;-76
2021/08/04 00:50:15;;;;;;;;;;;;;;;-142.75;66.08;76889.19;5036881;28;19917;-75
2021/08/04 00:52:41;;;;;;;;;;;;;;;-142.75;65.99;76897.06;5045373;28;19917;-76
2021/08/04 00:55:06;;;;;;;;;;;;;;;-142.75;65.92;76902.97;5054090;28;19975;-76
2021/08/04 00:57:31;;;;;;;;;;;;;;;-142.75;65.83;76910.84;5046492;28;19940;-76
2021/08/04 00:59:57;;;;;;;;;;;;;;;-142.75;65.88;76920.69;5050941;28;19916;-76
2021/08/04 01:02:27;;;;;;;;;;;;;;;-142.75;66.12;76924.63;5034779;28;20309;-76
2021/08/04 01:05:00;;;;;;;;;;;;;;;-142.75;66.27;76924.63;5047718;28;19924;-76
2021/08/04 01:07:27;;;;;;;;;;;;;;;-142.75;66.39;76934.47;5042792;28;19917;-76
2021/08/04 01:09:54;;;;;;;;;;;;;;;-142.75;66.38;76920.69;5034335;28;19940;-76
2021/08/04 01:12:21;;;;;;;;;;;;;;;-142.75;66.46;76910.84;5037600;28;19917;-76
2021/08/04 01:14:47;;;;;;;;;;;;;;;-142.75;66.55;76910.84;5052487;28;19928;-76
2021/08/04 01:17:14;;;;;;;;;;;;;;;-142.75;66.49;76920.69;5036063;28;19921;-76
2021/08/04 01:19:49;;;;;;;;;;;;;;;-142.75;66.52;76932.50;5035985;28;19966;-76
2021/08/04 01:22:33;;;;;;;;;;;;;;;-142.75;66.66;76932.50;5053327;28;19916;-76
2021/08/04 01:25:04;;;;;;;;;;;;;;;-142.75;66.37;76924.63;5037197;28;19928;-76
2021/08/04 01:27:30;;;;;;;;;;;;;;;-142.75;66.59;76928.56;5040454;28;19917;-76
2021/08/04 01:29:56;;;;;;;;;;;;;;;-142.75;66.62;76924.63;5052974;28;19916;-76
2021/08/04 01:32:21;;;;;;;;;;;;;;;-142.75;66.75;76904.94;5050780;28;19967;-75
2021/08/04 01:34:47;;;;;;;;;;;;;;;-142.75;66.70;76901.00;5049838;28;19924;-76
2021/08/04 01:37:13;;;;;;;;;;;;;;;-142.75;66.48;76901.00;5053102;28;19917;-75
2021/08/04 01:39:39;;;;;;;;;;;;;;;-142.75;66.27;76904.94;5044722;28;19955;-76
2021/08/04 01:42:04;;;;;;;;;;;;;;;-142.75;66.37;76901.00;5053674;28;19924;-76
2021/08/04 01:44:31;;;;;;;;;;;;;;;-142.75;66.18;76897.06;5052347;28;19928;-76
2021/08/04 01:46:57;;;;;;;;;;;;;;;-142.75;66.22;76906.91;5039540;28;19921;-75
2021/08/04 01:49:24;;;;;;;;;;;;;;;-142.75;66.23;76914.78;5034658;28;19935;-76
2021/08/04 01:51:50;;;;;;;;;;;;;;;-142.75;66.33;76936.44;5051989;28;19980;-76
2021/08/04 01:54:16;;;;;;;;;;;;;;;-142.75;66.40;76940.38;5036507;28;19979;-76
2021/08/04 01:56:41;;;;;;;;;;;;;;;-142.75;66.47;76936.44;5046743;28;20003;-76
2021/08/04 01:59:07;;;;;;;;;;;;;;;-142.75;66.51;76944.31;5041762;28;19953;-76
2021/08/04 02:01:34;;;;;;;;;;;;;;;-142.75;66.99;76956.13;5042994;28;20341;-76
2021/08/04 02:04:00;;;;;;;;;;;;;;;-142.75;67.41;76967.94;5033142;28;19947;-76
2021/08/04 02:06:29;;;;;;;;;;;;;;;-142.75;67.54;76956.13;5038249;28;19917;-76
2021/08/04 02:09:00;;;;;;;;;;;;;;;-142.75;67.37;76960.06;5053289;28;19998;-76
2021/08/04 02:11:43;;;;;;;;;;;;;;;-142.75;67.04;76960.06;5053309;28;19916;-76
2021/08/04 02:14:20;;;;;;;;;;;;;;;-142.75;66.87;76958.09;5053447;28;19944;-75
2021/08/04 02:17:00;;;;;;;;;;;;;;;-142.75;66.91;76975.81;5040364;28;19979;-76
2021/08/04 02:19:51;;;;;;;;;;;;;;;-142.75;66.81;76975.81;5052447;28;19917;-76
2021/08/04 02:22:32;;;;;;;;;;;;;;;-142.75;66.76;76979.75;5048162;28;19917;-75
2021/08/04 02:25:15;;;;;;;;;;;;;;;-142.75;66.79;76985.66;5051721;28;19921;-75
2021/08/04 02:27:41;;;;;;;;;;;;;;;-142.75;67.09;77001.41;5044345;28;19917;-76
2021/08/04 02:30:10;;;;;;;;;;;;;;;-142.75;67.46;76997.47;5038415;28;20397;-75
2021/08/04 02:32:36;;;;;;;;;;;;;;;-142.75;67.69;76995.50;5019213;28;19928;-76
2021/08/04 02:35:02;;;;;;;;;;;;;;;-142.75;67.87;76979.75;5035701;28;19921;-76
2021/08/04 02:37:28;;;;;;;;;;;;;;;-142.75;67.70;76971.88;5040507;28;20402;-76
2021/08/04 02:39:53;;;;;;;;;;;;;;;-142.75;67.70;76958.09;5046496;28;19924;-76
2021/08/04 02:42:19;;;;;;;;;;;;;;;-142.75;67.92;76952.19;5045665;28;19916;-77
2021/08/04 02:44:44;;;;;;;;;;;;;;;-142.75;67.62;76967.94;5040536;28;20017;-76
2021/08/04 02:47:09;;;;;;;;;;;;;;;-142.75;67.44;76932.50;5040441;28;19917;-76
2021/08/04 02:49:35;;;;;;;;;;;;;;;-142.75;66.19;76883.28;5048031;28;19917;-76
2021/08/04 02:52:00;;;;;;;;;;;;;;;-142.75;65.58;76895.09;5050282;28;19916;-76
2021/08/04 02:54:26;;;;;;;;;;;;;;;-142.75;65.18;76916.75;5046892;28;19920;-75
2021/08/04 02:56:51;;;;;;;;;;;;;;;-142.75;65.25;76932.50;5046107;28;20378;-76
2021/08/04 02:59:16;;;;;;;;;;;;;;;-142.75;65.33;76938.41;5042090;28;19920;-76
2021/08/04 03:01:41;;;;;;;;;;;;;;;-142.75;65.48;76952.19;5041069;28;19917;-76
2021/08/04 03:04:06;;;;;;;;;;;;;;;-142.75;65.72;76956.13;5049125;28;19923;-75
2021/08/04 03:06:31;;;;;;;;;;;;;;;-142.75;65.64;76962.03;5046516;28;19924;-76
2021/08/04 03:08:57;;;;;;;;;;;;;;;-142.75;65.67;76967.94;5060135;28;19917;-76
2021/08/04 03:11:22;;;;;;;;;;;;;;;-142.75;65.37;76973.84;5046218;28;20386;-76
2021/08/04 03:13:47;;;;;;;;;;;;;;;-142.75;65.32;76979.75;5039090;28;19992;-76
2021/08/04 03:16:12;;;;;;;;;;;;;;;-142.75;65.46;76991.56;5046323;28;19917;-76
2021/08/04 03:18:37;;;;;;;;;;;;;;;-142.75;65.61;76995.50;5046819;28;19988;-76
2021/08/04 03:21:02;;;;;;;;;;;;;;;-142.75;65.81;76997.47;5048412;28;20440;-76
2021/08/04 03:23:28;;;;;;;;;;;;;;;-142.75;65.97;77003.38;5042494;28;19921;-76
2021/08/04 03:25:53;;;;;;;;;;;;;;;-142.75;65.96;76979.75;5048235;28;19972;-76
2021/08/04 03:28:18;;;;;;;;;;;;;;;-142.75;66.01;77003.38;5044629;28;19917;-76
2021/08/04 03:30:43;;;;;;;;;;;;;;;-142.75;66.31;77011.25;5045768;28;20428;-76
2021/08/04 03:33:08;;;;;;;;;;;;;;;-142.75;66.59;77011.25;5044142;28;20015;-76
2021/08/04 03:35:34;;;;;;;;;;;;;;;-142.75;66.54;77015.19;5041326;28;19921;-76
2021/08/04 03:37:59;;;;;;;;;;;;;;;-142.75;66.33;77023.06;5042579;28;20043;-77
2021/08/04 03:40:24;;;;;;;;;;;;;;;-142.75;66.08;77030.94;5042482;28;19917;-76
2021/08/04 03:42:49;;;;;;;;;;;;;;;-142.75;66.02;77021.09;5047963;28;19917;-76
2021/08/04 03:45:14;;;;;;;;;;;;;;;-142.75;65.71;77025.03;5047263;28;19917;-76
2021/08/04 03:47:39;;;;;;;;;;;;;;;-142.75;65.61;77040.78;5048174;28;19921;-76
2021/08/04 03:50:05;;;;;;;;;;;;;;;-142.75;65.53;77030.94;5046012;28;19924;-77
2021/08/04 03:52:31;;;;;;;;;;;;;;;-142.75;65.56;77052.59;5038881;28;19917;-76
2021/08/04 03:54:56;;;;;;;;;;;;;;;-142.75;65.68;77046.69;5044688;28;20058;-76
2021/08/04 03:57:21;;;;;;;;;;;;;;;-142.75;65.53;77032.91;5044605;28;20004;-76
2021/08/04 03:59:46;;;;;;;;;;;;;;;-142.75;65.63;77050.63;5039021;28;19917;-75
2021/08/04 04:02:11;;;;;;;;;;;;;;;-142.75;65.91;77054.56;5045078;28;19917;-76
2021/08/04 04:04:37;;;;;;;;;;;;;;;-142.75;66.70;77038.81;5044483;28;19924;-76
2021/08/04 04:07:02;;;;;;;;;;;;;;;-142.75;67.90;77011.25;5042799;28;20386;-76
2021/08/04 04:09:29;;;;;;;;;;;;;;;-142.75;68.56;77003.38;5043945;28;20297;-78
2021/08/04 04:11:54;;;;;;;;;;;;;;;-142.75;68.79;77005.34;5040049;28;19924;-76
2021/08/04 04:14:19;;;;;;;;;;;;;;;-142.75;68.61;77019.13;5048027;28;19925;-76
2021/08/04 04:16:44;;;;;;;;;;;;;;;-142.75;68.43;77032.91;5045947;28;20365;-76
2021/08/04 04:19:09;;;;;;;;;;;;;;;-142.75;67.94;77042.75;5042599;28;19921;-76
2021/08/04 04:21:35;;;;;;;;;;;;;;;-142.75;67.59;77048.66;5044035;28;20302;-76
2021/08/04 04:24:00;;;;;;;;;;;;;;;-142.75;67.23;77064.41;5041403;28;20513;-76
2021/08/04 04:26:25;;;;;;;;;;;;;;;-142.75;67.23;77062.44;5039964;28;19917;-76
2021/08/04 04:28:51;;;;;;;;;;;;;;;-142.75;67.38;77070.31;5040193;28;19921;-76
2021/08/04 04:31:16;;;;;;;;;;;;;;;-142.75;67.45;77066.38;5039825;28;19917;-76
2021/08/04 04:33:41;;;;;;;;;;;;;;;-142.75;68.48;77050.63;5040577;28;19978;-75
2021/08/04 04:36:06;;;;;;;;;;;;;;;-142.75;69.33;77042.75;5049503;28;19921;-76
2021/08/04 04:38:31;;;;;;;;;;;;;;;-142.75;69.71;77034.88;5043956;28;19917;-76
2021/08/04 04:40:57;;;;;;;;;;;;;;;-142.75;69.72;77038.81;5048146;28;19916;-77
2021/08/04 04:43:22;;;;;;;;;;;;;;;-142.75;69.55;77048.66;5036727;28;20007;-75
2021/08/04 04:45:48;;;;;;;;;;;;;;;-142.75;69.24;77056.53;5042444;28;19942;-77
2021/08/04 04:48:13;;;;;;;;;;;;;;;-142.75;68.91;77066.38;5041620;28;19917;-76
2021/08/04 04:50:38;;;;;;;;;;;;;;;-142.75;68.76;77070.31;5039797;28;19917;-76
2021/08/04 04:53:03;;;;;;;;;;;;;;;-142.75;68.94;77058.50;5045227;28;19936;-76
2021/08/04 04:55:29;;;;;;;;;;;;;;;-142.75;68.81;77058.50;5034087;28;19925;-76
2021/08/04 04:57:54;;;;;;;;;;;;;;;-142.75;69.03;77076.22;5043198;28;19921;-75
2021/08/04 05:00:19;;;;;;;;;;;;;;;-142.75;69.21;77070.31;5043775;28;19920;-75
2021/08/04 05:02:44;;;;;;;;;;;;;;;-142.75;69.02;77050.63;5043549;28;19917;-76
2021/08/04 05:05:10;;;;;;;;;;;;;;;-142.75;68.79;77048.66;5042713;28;19917;-77
2021/08/04 05:07:35;;;;;;;;;;;;;;;-142.75;68.83;77042.75;5037218;28;19948;-77
2021/08/04 05:10:00;;;;;;;;;;;;;;;-142.75;68.83;77044.72;5042167;28;19917;-77
2021/08/04 05:12:25;;;;;;;;;;;;;;;-142.75;68.85;77048.66;5040359;28;19917;-76
2021/08/04 05:14:51;;;;;;;;;;;;;;;-142.75;68.72;77027.00;5038889;28;19972;-76
2021/08/04 05:17:16;;;;;;;;;;;;;;;-142.75;68.49;77019.13;5044011;28;19924;-76
2021/08/04 05:19:42;;;;;;;;;;;;;;;-142.75;68.46;77001.41;5035709;28;19962;-77
2021/08/04 05:22:07;;;;;;;;;;;;;;;-142.75;68.33;76981.72;5035486;28;21643;-76
2021/08/04 05:24:32;;;;;;;;;;;;;;;-142.75;68.27;76977.78;5041140;28;19917;-76
2021/08/04 05:26:57;;;;;;;;;;;;;;;-142.75;68.11;76952.19;5042627;28;19994;-76
2021/08/04 05:29:23;;;;;;;;;;;;;;;-142.75;68.00;76940.38;5035425;28;19917;-76
2021/08/04 05:31:48;;;;;;;;;;;;;;;-142.75;67.85;76932.50;5061088;22;19925;-77
2021/08/04 05:34:13;;;;;;;;;;;;;;;-142.75;67.59;76920.69;5048419;28;19928;-76
2021/08/04 05:36:38;;;;;;;;;;;;;;;-142.75;67.16;76912.81;5067533;28;19917;-77
2021/08/04 05:39:04;;;;;;;;;;;;;;;-142.75;66.87;76885.25;5070015;28;19923;-77
2021/08/04 05:41:29;;;;;;;;;;;;;;;-142.75;66.66;76867.53;5054986;28;20370;-79
2021/08/04 05:43:54;;;;;;;;;;;;;;;-142.75;66.53;76851.78;5049267;28;19917;-77
2021/08/04 05:46:19;;;;;;;;;;;;;;;-142.75;66.39;76826.19;5050003;28;19952;-77
2021/08/04 05:48:44;;;;;;;;;;;;;;;-142.75;66.00;76808.50;5042050;28;20526;-77
2021/08/04 05:51:09;;;;;;;;;;;;;;;-142.75;65.60;76786.84;5047623;28;19956;-79
2021/08/04 05:53:35;;;;;;;;;;;;;;;-142.75;65.28;76771.09;5048347;28;20686;-76
2021/08/04 05:56:00;;;;;;;;;;;;;;;-142.75;64.41;76745.50;5048369;28;19974;-77
2021/08/04 05:58:25;;;;;;;;;;;;;;;-142.75;63.89;76719.91;5049771;28;20444;-78
2021/08/04 06:00:50;;;;;;;;;;;;;;;-142.75;63.56;76694.31;5049297;28;19923;-77
2021/08/04 06:03:15;;;;;;;;;;;;;;;-142.75;62.89;76680.53;5065040;28;20214;-77
2021/08/04 06:05:40;;;;;;;;;;;;;;;-142.75;61.99;76680.53;5049595;28;19924;-74
2021/08/04 06:08:07;;;;;;;;;;;;;;;-142.75;62.22;76674.63;5048349;28;20011;-76
2021/08/04 06:10:32;;;;;;;;;;;;;;;-142.75;61.86;76670.69;5040046;28;19921;-76
2021/08/04 06:12:58;;;;;;;;;;;;;;;-142.75;62.72;76676.59;5031623;28;20267;-77
2021/08/04 06:15:23;;;;;;;;;;;;;;;-142.75;61.87;76674.63;5043257;28;20276;-76
2021/08/04 06:17:48;;;;;;;;;;;;;;;-142.75;62.68;76676.59;5037104;28;19947;-75
2021/08/04 06:20:13;;;;;;;;;;;;;;;-142.75;62.28;76651.00;5038498;28;20008;-76
2021/08/04 06:22:38;;;;;;;;;;;;;;;-142.75;61.25;76593.91;5049484;28;20405;-76
2021/08/04 06:25:04;;;;;;;;;;;;;;;-142.75;61.26;76597.84;5053751;28;19923;-76
2021/08/04 06:27:29;;;;;;;;;;;;;;;-142.75;60.62;76591.94;5052272;28;19923;-76
2021/08/04 06:29:54;;;;;;;;;;;;;;;-142.75;60.66;76597.84;5049095;28;20392;-77
2021/08/04 06:32:19;;;;;;;;;;;;;;;-142.75;60.36;76576.19;5043584;28;20466;-77
2021/08/04 06:34:45;;;;;;;;;;;;;;;-142.75;59.51;76562.41;5041950;28;20443;-75
2021/08/04 06:37:10;;;;;;;;;;;;;;;-142.75;60.38;76540.75;5033666;28;20322;-76
2021/08/04 06:39:35;;;;;;;;;;;;;;;-142.75;60.24;76544.69;5047628;28;20325;-76
2021/08/04 06:42:01;;;;;;;;;;;;;;;-142.75;60.50;76521.09;5045682;28;19955;-77
2021/08/04 06:44:27;;;;;;;;;;;;;;;-142.75;59.19;76475.81;5052542;28;19928;-77
2021/08/04 06:46:56;;;;;;;;;;;;;;;-142.75;58.04;76432.50;5051925;28;19917;-76
2021/08/04 06:49:21;;;;;;;;;;;;;;;-142.75;58.09;76460.06;5047776;28;19924;-77
2021/08/04 06:51:46;;;;;;;;;;;;;;;-142.75;58.45;76460.06;5052702;28;19916;-77
2021/08/04 06:54:12;;;;;;;;;;;;;;;-142.75;57.01;76381.31;5043892;28;19917;-77
2021/08/04 06:56:37;;;;;;;;;;;;;;;-142.75;56.24;76375.41;5047225;28;19928;-77
2021/08/04 06:59:02;;;;;;;;;;;;;;;-142.75;55.03;76363.59;5041379;28;20327;-75
2021/08/04 07:01:27;;;;;;;;;;;;;;;-142.75;55.73;76379.34;5050378;28;19920;-77
2021/08/04 07:03:52;;;;;;;;;;;;;;;-142.75;55.60;76267.16;5051582;28;19920;-77
2021/08/04 07:06:18;;;;;;;;;;;;;;;-142.75;53.96;76286.84;5052858;28;20158;-76
2021/08/04 07:08:43;;;;;;;;;;;;;;;-142.75;53.31;76204.16;5036133;28;19921;-75
2021/08/04 07:11:08;;;;;;;;;;;;;;;-142.75;51.15;76141.19;5040782;28;20368;-77
2021/08/04 07:13:33;;;;;;;;;;;;;;;-142.75;52.27;76168.75;5036215;28;19917;-76
2021/08/04 07:15:59;;;;;;;;;;;;;;;-142.75;52.38;76164.81;5033861;28;20426;-78
2021/08/04 07:18:24;;;;;;;;;;;;;;;-142.75;51.45;76105.75;5035075;28;19917;-77
2021/08/04 07:20:49;;;;;;;;;;;;;;;-142.75;51.34;76129.38;5050602;28;20302;-77
2021/08/04 07:23:15;;;;;;;;;;;;;;;-142.75;50.15;76093.94;5043986;28;19939;-77
2021/08/04 07:25:41;;;;;;;;;;;;;;;-142.75;49.59;76074.25;5051913;28;20370;-77
2021/08/04 07:28:06;;;;;;;;;;;;;;;-142.75;50.20;76097.88;5050541;28;19917;-77
2021/08/04 07:30:31;;;;;;;;;;;;;;;-142.75;50.33;76034.91;5050866;28;19925;-78
2021/08/04 07:32:56;;;;;;;;;;;;;;;-142.75;48.01;75983.72;5051855;28;20337;-76
2021/08/04 07:35:22;;;;;;;;;;;;;;;-142.75;48.60;75956.19;5050087;28;19921;-77
2021/08/04 07:37:47;;;;;;;;;;;;;;;-142.75;46.36;75871.53;5040718;28;19986;-77
2021/08/04 07:40:13;;;;;;;;;;;;;;;-142.75;47.15;75897.13;5047703;28;20359;-77
2021/08/04 07:42:39;;;;;;;;;;;;;;;-142.75;47.08;75950.28;5049852;28;19916;-77
2021/08/04 07:45:05;;;;;;;;;;;;;;;-142.75;47.13;75956.19;5046258;28;19924;-75
2021/08/04 07:47:30;;;;;;;;;;;;;;;-142.75;46.59;75928.63;5044538;28;19917;-76
2021/08/04 07:49:55;;;;;;;;;;;;;;;-142.75;44.79;75840.06;5046866;28;19924;-76
2021/08/04 07:52:20;;;;;;;;;;;;;;;-142.75;44.97;75794.78;5042045;28;19950;-76
2021/08/04 07:54:46;;;;;;;;;;;;;;;-142.75;44.59;75759.38;5040471;28;20011;-77
2021/08/04 07:57:11;;;;;;;;;;;;;;;-142.75;41.86;75621.59;5039822;28;19931;-77
2021/08/04 07:59:36;;;;;;;;;;;;;;;-142.75;42.35;75660.97;5035671;28;20371;-76
2021/08/04 08:02:03;;;;;;;;;;;;;;;-142.75;43.46;75706.22;5048442;28;19927;-76
2021/08/04 08:04:29;;;;;;;;;;;;;;;-142.75;42.47;75751.50;5048973;28;19943;-77
2021/08/04 08:06:54;;;;;;;;;;;;;;;-142.75;42.09;75619.63;5038013;28;19921;-75
2021/08/04 08:09:21;;;;;;;;;;;;;;;-142.75;40.82;75666.88;5029957;28;19979;-76
2021/08/04 08:11:47;;;;;;;;;;;;;;;-142.75;40.43;75588.16;5028487;28;20345;-77
2021/08/04 08:14:12;;;;;;;;;;;;;;;-142.75;40.68;75601.91;5033544;28;19917;-77
2021/08/04 08:16:37;;;;;;;;;;;;;;;-142.75;39.28;75470.06;5030127;28;20344;-76
2021/08/04 08:19:02;;;;;;;;;;;;;;;-142.75;37.63;75572.41;5048044;28;19920;-77
2021/08/04 08:21:28;;;;;;;;;;;;;;;-142.75;39.54;75594.06;5050088;28;19921;-76
2021/08/04 08:23:53;;;;;;;;;;;;;;;-142.75;39.98;75601.91;5037984;28;20310;-75
2021/08/04 08:26:21;;;;;;;;;;;;;;;-142.75;38.65;75592.09;5035387;28;19917;-74
2021/08/04 08:28:46;;;;;;;;;;;;;;;-142.75;38.16;75566.50;5035218;28;20404;-76
2021/08/04 08:31:11;;;;;;;;;;;;;;;-142.75;38.67;75448.41;5048392;28;20015;-76
2021/08/04 08:33:36;;;;;;;;;;;;;;;-142.75;39.04;75535.00;5037929;28;19917;-76
2021/08/04 08:36:01;;;;;;;;;;;;;;;-142.75;38.13;75475.97;5050002;28;20387;-76
2021/08/04 08:38:27;;;;;;;;;;;;;;;-142.75;38.83;75485.81;5050230;28;19921;-76
2021/08/04 08:40:52;;;;;;;;;;;;;;;-142.75;36.67;75519.25;5039906;28;19924;-75
2021/08/04 08:43:17;;;;;;;;;;;;;;;-142.75;38.17;75383.47;5030496;28;19966;-76
2021/08/04 08:45:43;;;;;;;;;;;;;;;-142.75;34.88;75235.88;5040691;28;20341;-75
2021/08/04 08:48:09;;;;;;;;;;;;;;;-142.75;34.88;75377.56;5050196;28;20122;-77
2021/08/04 08:50:37;;;;;;;;;;;;;;;-142.75;36.42;75497.63;5048290;28;20458;-76
2021/08/04 08:53:02;;;;;;;;;;;;;;;-142.75;36.69;75485.81;5048815;28;19920;-78
2021/08/04 08:55:27;;;;;;;;;;;;;;;-142.75;36.90;75483.84;5050118;28;19927;-76
2021/08/04 08:57:53;;;;;;;;;;;;;;;-142.75;36.32;75509.44;5041590;28;19921;-77
2021/08/04 09:00:18;;;;;;;;;;;;;;;-142.75;36.86;75391.34;5030984;28;19968;-76
2021/08/04 09:02:44;;;;;;;;;;;;;;;-142.75;34.23;75281.16;5049692;28;20336;-77
2021/08/04 09:05:10;;;;;;;;;;;;;;;-142.75;35.00;75275.25;5050708;28;19916;-77
2021/08/04 09:07:36;;;;;;;;;;;;;;;-142.75;35.42;75153.25;5042255;28;19917;-77
2021/08/04 09:10:17;;;;;;;;;;;;;;;-142.75;34.39;75212.28;5049365;28;20544;-77
2021/08/04 09:12:49;;;;;;;;;;;;;;;-142.75;34.59;75422.84;5049493;28;20023;-76
2021/08/04 09:15:25;;;;;;;;;;;;;;;-142.75;36.70;75458.25;5050936;28;20601;-75
2021/08/04 09:18:03;;;;;;;;;;;;;;;-142.75;35.46;75399.22;5050850;28;19920;-76
2021/08/04 09:20:29;;;;;;;;;;;;;;;-142.75;35.93;75533.03;5049099;28;20375;-77
2021/08/04 09:23:03;;;;;;;;;;;;;;;-142.75;35.61;75409.06;5050975;28;20000;-76
2021/08/04 09:25:30;;;;;;;;;;;;;;;-142.75;36.18;75401.19;5050857;28;19921;-77
2021/08/04 09:27:57;;;;;;;;;;;;;;;-142.75;34.65;75314.59;5048692;28;20397;-76
2021/08/04 09:30:25;;;;;;;;;;;;;;;-142.75;35.14;75143.41;5049791;28;20359;-76
2021/08/04 09:32:50;;;;;;;;;;;;;;;-142.75;33.54;75194.56;5050643;28;20003;-77
2021/08/04 09:35:17;;;;;;;;;;;;;;;-142.75;32.98;75263.44;5050402;28;20023;-76
2021/08/04 09:37:43;;;;;;;;;;;;;;;-142.75;33.64;75367.72;5032534;28;19924;-76
2021/08/04 09:40:09;;;;;;;;;;;;;;;-142.75;35.58;75466.13;5030219;28;19917;-76
2021/08/04 09:42:52;;;;;;;;;;;;;;;-142.75;35.93;75430.72;5035544;28;19917;-76
2021/08/04 09:45:19;;;;;;;;;;;;;;;-142.75;35.00;75298.84;5048984;28;19917;-77
2021/08/04 09:47:57;;;;;;;;;;;;;;;-142.75;36.04;75377.56;5044718;28;19964;-76
2021/08/04 09:50:23;;;;;;;;;;;;;;;-142.75;35.23;75377.56;5039815;28;19917;-77
2021/08/04 09:52:52;;;;;;;;;;;;;;;-142.75;35.39;75275.25;5049442;28;19920;-76
2021/08/04 09:55:18;;;;;;;;;;;;;;;-142.75;34.52;75361.84;5045340;28;19925;-76
2021/08/04 09:57:44;;;;;;;;;;;;;;;-142.75;34.75;75291.00;5042691;28;19956;-75
2021/08/04 10:00:10;;;;;;;;;;;;;;;-142.75;36.45;75472.03;5048773;28;19917;-75
2021/08/04 10:02:36;;;;;;;;;;;;;;;-142.75;34.58;75361.84;5047450;28;19928;-76
2021/08/04 10:05:15;;;;;;;;;;;;;;;-142.75;35.03;75361.84;5035482;28;19970;-78
2021/08/04 10:07:59;;;;;;;;;;;;;;;-142.75;36.33;75474.00;5040593;28;19970;-74
2021/08/04 10:10:24;;;;;;;;;;;;;;;-142.75;35.47;75320.50;5035594;28;20024;-78
2021/08/04 10:12:50;;;;;;;;;;;;;;;-142.75;33.59;75194.56;5041710;28;20430;-77
2021/08/04 10:15:15;;;;;;;;;;;;;;;-142.75;34.99;75334.28;5046343;28;20008;-76
2021/08/04 10:17:40;;;;;;;;;;;;;;;-142.75;34.32;75194.56;5033122;28;19955;-77
2021/08/04 10:20:06;;;;;;;;;;;;;;;-142.75;35.17;75222.13;5035836;28;19920;-77
2021/08/04 10:22:31;;;;;;;;;;;;;;;-142.75;35.05;75320.50;5034486;28;19952;-77
2021/08/04 10:24:56;;;;;;;;;;;;;;;-142.75;34.21;75314.59;5040333;28;19925;-76
2021/08/04 10:27:22;;;;;;;;;;;;;;;-142.75;35.52;75436.59;5033048;28;19925;-76
2021/08/04 10:29:47;;;;;;;;;;;;;;;-142.75;35.90;75411.03;5032490;28;19925;-76
2021/08/04 10:32:13;;;;;;;;;;;;;;;-142.75;35.87;75432.69;5037780;28;20034;-75
2021/08/04 10:34:38;;;;;;;;;;;;;;;-142.75;34.76;75312.63;5029374;28;19928;-76
2021/08/04 10:37:03;;;;;;;;;;;;;;;-142.75;34.45;75355.94;5029309;28;20011;-75
2021/08/04 10:39:29;;;;;;;;;;;;;;;-142.75;35.35;75363.78;5037723;28;19916;-76
2021/08/04 10:42:01;;;;;;;;;;;;;;;-142.75;34.78;75346.09;5049266;28;19917;-76
2021/08/04 10:44:27;;;;;;;;;;;;;;;-142.75;35.32;75318.53;5049693;28;20382;-76
2021/08/04 10:46:54;;;;;;;;;;;;;;;-142.75;35.26;75320.50;5016379;28;19920;-76
2021/08/04 10:49:21;;;;;;;;;;;;;;;-142.75;34.16;75279.19;5029791;28;19917;-76
2021/08/04 10:51:55;;;;;;;;;;;;;;;-142.75;35.71;75428.75;5048752;28;20374;-77
2021/08/04 10:54:21;;;;;;;;;;;;;;;-142.75;35.93;75438.56;5049511;28;20015;-75
2021/08/04 10:56:48;;;;;;;;;;;;;;;-142.75;35.71;75485.81;5048070;28;19991;-76
2021/08/04 10:59:13;;;;;;;;;;;;;;;-142.75;37.98;75645.22;5044527;28;19959;-77
2021/08/04 11:01:38;;;;;;;;;;;;;;;-142.75;37.16;75635.38;5036959;28;19917;-77
2021/08/04 11:04:04;;;;;;;;;;;;;;;-142.75;38.40;75696.38;5033394;28;19963;-77
2021/08/04 11:06:29;;;;;;;;;;;;;;;-142.75;39.09;75733.78;5044238;28;20385;-77
2021/08/04 11:09:13;;;;;;;;;;;;;;;-142.75;38.00;75731.81;5050040;28;19917;-76
2021/08/04 11:11:49;;;;;;;;;;;;;;;-142.75;38.53;75670.81;5045322;28;19921;-76
2021/08/04 11:14:34;;;;;;;;;;;;;;;-142.75;40.09;75773.13;5052576;28;20397;-77
2021/08/04 11:17:00;;;;;;;;;;;;;;;-142.75;39.36;75777.06;5042472;28;19917;-77
2021/08/04 11:19:30;;;;;;;;;;;;;;;-142.75;39.95;75777.06;5046289;28;19963;-78
2021/08/04 11:22:12;;;;;;;;;;;;;;;-142.75;39.91;75521.22;5037085;28;20412;-77
2021/08/04 11:24:57;;;;;;;;;;;;;;;-142.75;36.71;75336.25;5041819;28;20435;-77
2021/08/04 11:27:25;;;;;;;;;;;;;;;-142.75;34.96;75470.06;5038863;28;20020;-76
2021/08/04 11:29:51;;;;;;;;;;;;;;;-142.75;35.49;75487.78;5032854;28;19921;-76
2021/08/04 11:32:16;;;;;;;;;;;;;;;-142.75;36.37;75540.91;5033051;28;19917;-77
2021/08/04 11:34:41;;;;;;;;;;;;;;;-142.75;38.72;75676.69;5035579;28;19927;-76
2021/08/04 11:37:06;;;;;;;;;;;;;;;-142.75;38.39;75664.91;5035571;28;19924;-78
2021/08/04 11:39:32;;;;;;;;;;;;;;;-142.75;38.09;75619.63;5052841;28;19928;-77
2021/08/04 11:41:57;;;;;;;;;;;;;;;-142.75;36.10;75535.00;5052341;28;19923;-76
2021/08/04 11:44:29;;;;;;;;;;;;;;;-142.75;36.58;75554.69;5051290;28;19916;-76
2021/08/04 11:47:13;;;;;;;;;;;;;;;-142.75;37.28;75558.63;5051488;28;19964;-77
2021/08/04 11:49:42;;;;;;;;;;;;;;;-142.75;38.56;75485.81;5040452;28;19975;-76
2021/08/04 11:52:09;;;;;;;;;;;;;;;-142.75;36.83;75326.41;5048646;28;20270;-78
2021/08/04 11:54:45;;;;;;;;;;;;;;;-142.75;34.76;75440.53;5034516;28;19929;-77
2021/08/04 11:57:26;;;;;;;;;;;;;;;-142.75;35.78;75438.56;5033914;28;19913;-75
2021/08/04 11:59:51;;;;;;;;;;;;;;;-142.75;35.03;75481.88;5030988;28;20372;-77
2021/08/04 12:02:17;;;;;;;;;;;;;;;-142.75;35.71;75497.63;5034548;28;19968;-77
2021/08/04 12:04:47;;;;;;;;;;;;;;;-142.75;37.51;75617.66;5049261;28;19943;-77
2021/08/04 12:07:13;;;;;;;;;;;;;;;-142.75;38.64;75635.38;5038368;28;20003;-77
2021/08/04 12:09:39;;;;;;;;;;;;;;;-142.75;37.72;75657.03;5038607;28;20036;-78
2021/08/04 12:12:06;;;;;;;;;;;;;;;-142.75;38.24;75660.97;5030338;28;19939;-76
2021/08/04 12:14:33;;;;;;;;;;;;;;;-142.75;38.56;75684.56;5032074;28;19921;-76
2021/08/04 12:16:59;;;;;;;;;;;;;;;-142.75;37.85;75704.25;5032363;28;19974;-76
2021/08/04 12:19:33;;;;;;;;;;;;;;;-142.75;38.14;75586.19;5032433;28;20523;-77
2021/08/04 12:21:59;;;;;;;;;;;;;;;-142.75;37.85;75597.97;5050605;28;19917;-77
2021/08/04 12:24:24;;;;;;;;;;;;;;;-142.75;37.65;75635.38;5051809;28;20344;-76
2021/08/04 12:26:49;;;;;;;;;;;;;;;-142.75;38.78;75645.22;5051749;28;19917;-77